Aérodrome :
LOGIN :

S'inscrire | Disclaimer

   EN    FR    IT 

 










Légende :    VFR   VFR Marginal   IFR   IFR Intensif   IFR Très Intensif
Visi : 
Plafond : 
>= 8 km
>= 3000ft
5 à 8 km
1000 à 3000 ft
1500m à 5 km
500 à 1000 ft
800 à 1500m
200 à 500 ft
< 800m
< 200 ft
Symboles :   Orages  Brouillard  Fortes neiges  Fortes précipitations  Vent > 20 kt
SIGMETs :   Divers  Orages  Givrage  Turbulence  Onde Orograph.  Cendres Volcan.







- Altitude de l'aérodrome : 309 ft
- Code IATA : FNI
- Voir les cartes d'approche


LFTW - Nîmes Garons

DERNIER METAR :
  • 011730Z AUTO 22007KT 190V250 CAVOK 12/05 Q1017 NOSIG

METARs EXPIRÉS :
  • 011700Z AUTO 20006KT 180V240 9999 FEW049 SCT058 BKN070 12/05 Q1017 NOSIG
  • 011630Z AUTO 19007KT 160V220 9999 BKN049 BKN150 12/05 Q1017 NOSIG
  • 011600Z AUTO 19007KT CAVOK 13/05 Q1017 NOSIG
  • 011530Z AUTO 19007KT 160V220 CAVOK 13/04 Q1016 NOSIG
  • 011500Z AUTO 23004KT 190V280 CAVOK 13/04 Q1016 NOSIG

TAF TAF LFTW
Valide du 01 à 15h jusqu'au 02 à 15h UTC


011400Z 0115/0215 VRB04KT CAVOK
TEMPO 0115/0119 22010KT
BECMG 0212/0214 30010KT
Pas de NOTAMs connus pour ce terrain.
6 SIGMETs publiés pour la FIR Marseille (LFMM) :
 
Onde orographique forte
LFMM SIGMET 17 VALID 011800/012200 LFPW
LFMM MARSEILLE FIR/UIR SEV MTW FCST E OF E00845 SFC/FL250 STNR NC=
Onde orographique forte
LFMM SIGMET 16 VALID 011800/012200 LFPW
LFMM MARSEILLE FIR/UIR SEV MTW FCST WI N4600 E00700 - N4400 E00700 - N4400 E00715 - N4330 E00700 - N4400 E00615 - N4600 E00645 SFC/FL200 STNR NC=
Turbulence forte
LFMM SIGMET 15 VALID 011800/012200 LFPW
LFMM MARSEILLE FIR/UIR SEV TURB OBS WI N4345 E00730 - N4315 E00945 - N4115 E00945 - N4115 E00845 - N4300 E00600 - N4345 E00645 SFC/FL050 STNR NC=
Onde orographique forte
LFMM SIGMET 14 VALID 011500/011800 LFPW
LFMM MARSEILLE FIR/UIR SEV MTW FCST E OF E00845 SFC/FL250 STNR NC=
Onde orographique forte
LFMM SIGMET 13 VALID 011500/011800 LFPW
LFMM MARSEILLE FIR/UIR SEV MTW FCST WI N4600 E00700 - N4400 E00700 - N4400 E00715 - N4330 E00700 - N4400 E00615 - N4600 E00645 SFC/FL200 STNR NC=
Turbulence forte
LFMM SIGMET 12 VALID 011500/011800 LFPW
LFMM MARSEILLE FIR/UIR SEV TURB OBS WI N4345 E00730 - N4315 E00945 - N4115 E00945 - N4115 E00900 - N4300 E00630 SFC/FL050 STNR NC=



MET'MAP, la Météo Aéronautique d'un coup d'oeil ! - Copyright ORBIFLY Décembre 2007 - Disclaimer

ORBIFLY MET'MAP TEAM :

Programmation & Développement : Alexandra Zaïnal
Conception & Développement : Baudouin d'Aumeries
Co-Programmation & Développement : Marc-Olivier Méhu
Soutien technique & logistique : Manuel Goepfert

Contact : metmap@orbifly.com




SOURCES & CREDITS :

   NOAA